sensor_id;sensor_type;location;lat;lon;timestamp;temperature;humidity
31263;DHT22;17892;52.080;9.006;2023-02-28T00:00:33;-0.80;99.90
31263;DHT22;17892;52.080;9.006;2023-02-28T00:02:59;-0.80;99.90
31263;DHT22;17892;52.080;9.006;2023-02-28T00:05:27;-0.80;99.90
31263;DHT22;17892;52.080;9.006;2023-02-28T00:07:53;-0.90;99.90
31263;DHT22;17892;52.080;9.006;2023-02-28T00:10:22;-0.90;99.90
31263;DHT22;17892;52.080;9.006;2023-02-28T00:12:53;-0.90;99.90
31263;DHT22;17892;52.080;9.006;2023-02-28T00:15:22;-0.90;99.90
31263;DHT22;17892;52.080;9.006;2023-02-28T00:17:48;-0.90;99.90
31263;DHT22;17892;52.080;9.006;2023-02-28T00:20:14;-0.90;99.90
31263;DHT22;17892;52.080;9.006;2023-02-28T00:22:42;-0.90;99.90
31263;DHT22;17892;52.080;9.006;2023-02-28T00:25:11;-0.90;99.90
31263;DHT22;17892;52.080;9.006;2023-02-28T00:27:39;-0.90;99.90
31263;DHT22;17892;52.080;9.006;2023-02-28T00:30:06;-0.90;99.90
31263;DHT22;17892;52.080;9.006;2023-02-28T00:32:33;-0.80;99.90
31263;DHT22;17892;52.080;9.006;2023-02-28T00:35:00;-0.80;99.90
31263;DHT22;17892;52.080;9.006;2023-02-28T00:37:27;-0.80;99.90
31263;DHT22;17892;52.080;9.006;2023-02-28T00:39:53;-0.70;99.90
31263;DHT22;17892;52.080;9.006;2023-02-28T00:42:18;-0.70;99.90
31263;DHT22;17892;52.080;9.006;2023-02-28T00:44:44;-0.70;99.90
31263;DHT22;17892;52.080;9.006;2023-02-28T00:47:10;-0.70;99.90
31263;DHT22;17892;52.080;9.006;2023-02-28T00:49:35;-0.60;99.90
31263;DHT22;17892;52.080;9.006;2023-02-28T00:52:01;-0.50;99.90
31263;DHT22;17892;52.080;9.006;2023-02-28T00:54:27;-0.50;99.90
31263;DHT22;17892;52.080;9.006;2023-02-28T00:56:53;-0.50;99.90
31263;DHT22;17892;52.080;9.006;2023-02-28T00:59:19;-0.50;99.90
31263;DHT22;17892;52.080;9.006;2023-02-28T01:01:46;-0.50;99.90
31263;DHT22;17892;52.080;9.006;2023-02-28T01:04:12;-0.50;99.90
31263;DHT22;17892;52.080;9.006;2023-02-28T01:06:38;-0.50;99.90
31263;DHT22;17892;52.080;9.006;2023-02-28T01:09:04;-0.50;99.90
31263;DHT22;17892;52.080;9.006;2023-02-28T01:11:31;-0.60;99.90
31263;DHT22;17892;52.080;9.006;2023-02-28T01:13:57;-0.60;99.90
31263;DHT22;17892;52.080;9.006;2023-02-28T01:16:23;-0.60;99.90
31263;DHT22;17892;52.080;9.006;2023-02-28T01:18:49;-0.70;99.90
31263;DHT22;17892;52.080;9.006;2023-02-28T01:21:17;-0.70;99.90
31263;DHT22;17892;52.080;9.006;2023-02-28T01:23:44;-0.80;99.90
31263;DHT22;17892;52.080;9.006;2023-02-28T01:28:42;-0.90;99.90
31263;DHT22;17892;52.080;9.006;2023-02-28T01:31:08;-0.90;99.90
31263;DHT22;17892;52.080;9.006;2023-02-28T01:33:34;-1.00;99.90
31263;DHT22;17892;52.080;9.006;2023-02-28T01:36:06;-1.00;99.90
31263;DHT22;17892;52.080;9.006;2023-02-28T01:38:37;-1.10;99.90
31263;DHT22;17892;52.080;9.006;2023-02-28T01:41:04;-1.10;99.90
31263;DHT22;17892;52.080;9.006;2023-02-28T01:46:22;-1.30;99.90
31263;DHT22;17892;52.080;9.006;2023-02-28T01:49:13;-1.30;99.90
31263;DHT22;17892;52.080;9.006;2023-02-28T01:51:46;-1.40;99.90
31263;DHT22;17892;52.080;9.006;2023-02-28T01:54:22;-1.50;99.90
31263;DHT22;17892;52.080;9.006;2023-02-28T01:57:12;-1.50;99.90
31263;DHT22;17892;52.080;9.006;2023-02-28T01:59:48;-1.60;99.90
31263;DHT22;17892;52.080;9.006;2023-02-28T02:02:17;-1.70;99.90
31263;DHT22;17892;52.080;9.006;2023-02-28T02:04:58;-1.70;99.90
31263;DHT22;17892;52.080;9.006;2023-02-28T02:07:40;-1.80;99.90
31263;DHT22;17892;52.080;9.006;2023-02-28T02:18:49;-2.00;99.90
31263;DHT22;17892;52.080;9.006;2023-02-28T02:24:33;-2.00;99.90
31263;DHT22;17892;52.080;9.006;2023-02-28T02:36:33;-2.20;99.90
31263;DHT22;17892;52.080;9.006;2023-02-28T02:39:07;-2.20;99.90
31263;DHT22;17892;52.080;9.006;2023-02-28T02:41:52;-2.20;99.90
31263;DHT22;17892;52.080;9.006;2023-02-28T02:44:30;-2.30;99.90
31263;DHT22;17892;52.080;9.006;2023-02-28T02:47:15;-2.30;99.90
31263;DHT22;17892;52.080;9.006;2023-02-28T02:49:52;-2.40;99.90
31263;DHT22;17892;52.080;9.006;2023-02-28T02:52:20;-2.50;99.90
31263;DHT22;17892;52.080;9.006;2023-02-28T02:54:49;-2.40;99.90
31263;DHT22;17892;52.080;9.006;2023-02-28T02:57:34;-2.50;99.90
31263;DHT22;17892;52.080;9.006;2023-02-28T03:00:04;-2.60;99.90
31263;DHT22;17892;52.080;9.006;2023-02-28T03:02:35;-2.60;99.90
31263;DHT22;17892;52.080;9.006;2023-02-28T03:05:12;-2.70;99.90
31263;DHT22;17892;52.080;9.006;2023-02-28T03:07:42;-2.70;99.90
31263;DHT22;17892;52.080;9.006;2023-02-28T03:10:27;-2.80;99.90
31263;DHT22;17892;52.080;9.006;2023-02-28T03:21:16;-2.90;99.90
31263;DHT22;17892;52.080;9.006;2023-02-28T03:23:56;-2.90;99.90
31263;DHT22;17892;52.080;9.006;2023-02-28T03:26:40;-3.00;99.90
31263;DHT22;17892;52.080;9.006;2023-02-28T03:29:15;-3.10;99.90
31263;DHT22;17892;52.080;9.006;2023-02-28T03:34:46;-3.10;99.90
31263;DHT22;17892;52.080;9.006;2023-02-28T03:37:20;-3.20;99.90
31263;DHT22;17892;52.080;9.006;2023-02-28T03:39:56;-3.20;99.90
31263;DHT22;17892;52.080;9.006;2023-02-28T03:42:35;-3.20;99.90
31263;DHT22;17892;52.080;9.006;2023-02-28T03:45:13;-3.20;99.90
31263;DHT22;17892;52.080;9.006;2023-02-28T03:47:53;-3.20;99.90
31263;DHT22;17892;52.080;9.006;2023-02-28T03:50:27;-3.30;99.90
31263;DHT22;17892;52.080;9.006;2023-02-28T03:53:10;-3.30;99.90
31263;DHT22;17892;52.080;9.006;2023-02-28T03:55:42;-3.30;99.90
31263;DHT22;17892;52.080;9.006;2023-02-28T04:01:08;-3.30;99.90
31263;DHT22;17892;52.080;9.006;2023-02-28T04:03:37;-3.40;99.90
31263;DHT22;17892;52.080;9.006;2023-02-28T04:06:05;-3.40;99.90
31263;DHT22;17892;52.080;9.006;2023-02-28T04:08:33;-3.40;99.90
31263;DHT22;17892;52.080;9.006;2023-02-28T04:11:06;-3.50;99.90
31263;DHT22;17892;52.080;9.006;2023-02-28T04:13:43;-3.50;99.90
31263;DHT22;17892;52.080;9.006;2023-02-28T04:16:09;-3.50;99.90
31263;DHT22;17892;52.080;9.006;2023-02-28T04:18:38;-3.50;99.90
31263;DHT22;17892;52.080;9.006;2023-02-28T04:21:05;-3.50;99.90
31263;DHT22;17892;52.080;9.006;2023-02-28T04:23:32;-3.60;99.90
31263;DHT22;17892;52.080;9.006;2023-02-28T04:25:58;-3.60;99.90
31263;DHT22;17892;52.080;9.006;2023-02-28T04:28:23;-3.60;99.90
31263;DHT22;17892;52.080;9.006;2023-02-28T04:31:15;-3.60;99.90
31263;DHT22;17892;52.080;9.006;2023-02-28T04:33:41;-3.70;99.90
31263;DHT22;17892;52.080;9.006;2023-02-28T04:36:08;-3.70;99.90
31263;DHT22;17892;52.080;9.006;2023-02-28T04:38:36;-3.70;99.90
31263;DHT22;17892;52.080;9.006;2023-02-28T04:41:03;-3.70;99.90
31263;DHT22;17892;52.080;9.006;2023-02-28T04:43:30;-3.80;99.90
31263;DHT22;17892;52.080;9.006;2023-02-28T04:45:58;-3.80;99.90
31263;DHT22;17892;52.080;9.006;2023-02-28T04:48:28;-3.80;99.90
31263;DHT22;17892;52.080;9.006;2023-02-28T04:50:55;-3.80;99.90
31263;DHT22;17892;52.080;9.006;2023-02-28T04:53:21;-3.80;99.90
31263;DHT22;17892;52.080;9.006;2023-02-28T04:55:46;-3.80;99.90
31263;DHT22;17892;52.080;9.006;2023-02-28T04:58:13;-3.80;99.90
31263;DHT22;17892;52.080;9.006;2023-02-28T05:00:39;-3.90;99.90
31263;DHT22;17892;52.080;9.006;2023-02-28T05:03:05;-3.90;99.90
31263;DHT22;17892;52.080;9.006;2023-02-28T05:05:31;-3.90;99.90
31263;DHT22;17892;52.080;9.006;2023-02-28T05:07:57;-3.90;99.90
31263;DHT22;17892;52.080;9.006;2023-02-28T05:10:23;-4.00;99.90
31263;DHT22;17892;52.080;9.006;2023-02-28T05:12:49;-4.00;99.90
31263;DHT22;17892;52.080;9.006;2023-02-28T05:15:16;-4.00;99.90
31263;DHT22;17892;52.080;9.006;2023-02-28T05:17:42;-4.10;99.90
31263;DHT22;17892;52.080;9.006;2023-02-28T05:20:09;-4.10;99.90
31263;DHT22;17892;52.080;9.006;2023-02-28T05:22:39;-4.10;99.90
31263;DHT22;17892;52.080;9.006;2023-02-28T05:25:06;-4.20;99.90
31263;DHT22;17892;52.080;9.006;2023-02-28T05:27:32;-4.20;99.90
31263;DHT22;17892;52.080;9.006;2023-02-28T05:29:58;-4.20;99.90
31263;DHT22;17892;52.080;9.006;2023-02-28T05:32:24;-4.20;99.90
31263;DHT22;17892;52.080;9.006;2023-02-28T05:34:50;-4.30;99.90
31263;DHT22;17892;52.080;9.006;2023-02-28T05:37:16;-4.30;99.90
31263;DHT22;17892;52.080;9.006;2023-02-28T05:39:42;-4.30;99.90
31263;DHT22;17892;52.080;9.006;2023-02-28T05:42:08;-4.30;99.90
31263;DHT22;17892;52.080;9.006;2023-02-28T05:44:34;-4.30;99.90
31263;DHT22;17892;52.080;9.006;2023-02-28T05:47:00;-4.30;99.90
31263;DHT22;17892;52.080;9.006;2023-02-28T05:49:26;-4.30;99.90
31263;DHT22;17892;52.080;9.006;2023-02-28T05:51:52;-4.30;99.90
31263;DHT22;17892;52.080;9.006;2023-02-28T05:54:17;-4.20;99.90
31263;DHT22;17892;52.080;9.006;2023-02-28T05:56:43;-4.20;99.90
31263;DHT22;17892;52.080;9.006;2023-02-28T05:59:12;-4.20;99.90
31263;DHT22;17892;52.080;9.006;2023-02-28T06:01:41;-4.20;99.90
31263;DHT22;17892;52.080;9.006;2023-02-28T06:04:09;-4.20;99.90
31263;DHT22;17892;52.080;9.006;2023-02-28T06:06:36;-4.20;99.90
31263;DHT22;17892;52.080;9.006;2023-02-28T06:09:03;-4.20;99.90
31263;DHT22;17892;52.080;9.006;2023-02-28T06:11:29;-4.30;99.90
31263;DHT22;17892;52.080;9.006;2023-02-28T06:13:59;-4.30;99.90
31263;DHT22;17892;52.080;9.006;2023-02-28T06:16:27;-4.30;99.90
31263;DHT22;17892;52.080;9.006;2023-02-28T06:18:53;-4.30;99.90
31263;DHT22;17892;52.080;9.006;2023-02-28T06:21:21;-4.30;99.90
31263;DHT22;17892;52.080;9.006;2023-02-28T06:23:47;-4.30;99.90
31263;DHT22;17892;52.080;9.006;2023-02-28T06:26:13;-4.30;99.90
31263;DHT22;17892;52.080;9.006;2023-02-28T06:28:39;-4.30;99.90
31263;DHT22;17892;52.080;9.006;2023-02-28T06:31:10;-4.30;99.90
31263;DHT22;17892;52.080;9.006;2023-02-28T06:33:38;-4.20;99.90
31263;DHT22;17892;52.080;9.006;2023-02-28T06:36:05;-4.20;99.90
31263;DHT22;17892;52.080;9.006;2023-02-28T06:38:32;-4.20;99.90
31263;DHT22;17892;52.080;9.006;2023-02-28T06:40:59;-4.20;99.90
31263;DHT22;17892;52.080;9.006;2023-02-28T06:43:28;-4.20;99.90
31263;DHT22;17892;52.080;9.006;2023-02-28T06:45:56;-4.10;99.90
31263;DHT22;17892;52.080;9.006;2023-02-28T06:48:24;-4.10;99.90
31263;DHT22;17892;52.080;9.006;2023-02-28T06:50:51;-4.10;99.90
31263;DHT22;17892;52.080;9.006;2023-02-28T06:53:17;-4.00;99.90
31263;DHT22;17892;52.080;9.006;2023-02-28T06:55:42;-3.90;99.90
31263;DHT22;17892;52.080;9.006;2023-02-28T06:58:09;-3.90;99.90
31263;DHT22;17892;52.080;9.006;2023-02-28T07:00:44;-3.70;99.90
31263;DHT22;17892;52.080;9.006;2023-02-28T07:03:11;-3.60;99.90
31263;DHT22;17892;52.080;9.006;2023-02-28T07:05:38;-3.40;99.90
31263;DHT22;17892;52.080;9.006;2023-02-28T07:08:05;-3.10;99.90
31263;DHT22;17892;52.080;9.006;2023-02-28T07:10:32;-2.70;99.90
31263;DHT22;17892;52.080;9.006;2023-02-28T07:12:59;-2.30;99.90
31263;DHT22;17892;52.080;9.006;2023-02-28T07:15:25;-1.90;99.90
31263;DHT22;17892;52.080;9.006;2023-02-28T07:17:51;-1.50;99.90
31263;DHT22;17892;52.080;9.006;2023-02-28T07:20:17;-1.20;99.90
31263;DHT22;17892;52.080;9.006;2023-02-28T07:22:43;-0.90;99.90
31263;DHT22;17892;52.080;9.006;2023-02-28T07:25:09;-0.50;99.90
31263;DHT22;17892;52.080;9.006;2023-02-28T07:27:34;-0.20;99.90
31263;DHT22;17892;52.080;9.006;2023-02-28T07:30:00;0.20;99.90
31263;DHT22;17892;52.080;9.006;2023-02-28T07:32:27;0.60;99.90
31263;DHT22;17892;52.080;9.006;2023-02-28T07:34:53;1.10;99.90
31263;DHT22;17892;52.080;9.006;2023-02-28T07:37:20;1.60;99.90
31263;DHT22;17892;52.080;9.006;2023-02-28T07:39:45;2.10;99.90
31263;DHT22;17892;52.080;9.006;2023-02-28T07:42:11;2.60;99.90
31263;DHT22;17892;52.080;9.006;2023-02-28T07:44:40;3.10;99.90
31263;DHT22;17892;52.080;9.006;2023-02-28T07:47:11;3.60;99.90
31263;DHT22;17892;52.080;9.006;2023-02-28T07:49:37;4.10;99.90
31263;DHT22;17892;52.080;9.006;2023-02-28T07:52:06;4.60;99.90
31263;DHT22;17892;52.080;9.006;2023-02-28T07:54:33;5.10;99.90
31263;DHT22;17892;52.080;9.006;2023-02-28T07:56:59;5.50;99.90
31263;DHT22;17892;52.080;9.006;2023-02-28T07:59:25;5.90;99.90
31263;DHT22;17892;52.080;9.006;2023-02-28T08:01:51;6.10;99.90
31263;DHT22;17892;52.080;9.006;2023-02-28T08:04:17;6.40;99.90
31263;DHT22;17892;52.080;9.006;2023-02-28T08:06:43;6.70;99.90
31263;DHT22;17892;52.080;9.006;2023-02-28T08:09:09;6.90;99.90
31263;DHT22;17892;52.080;9.006;2023-02-28T08:11:35;7.20;99.90
31263;DHT22;17892;52.080;9.006;2023-02-28T08:14:01;7.50;99.90
31263;DHT22;17892;52.080;9.006;2023-02-28T08:16:27;7.80;99.90
31263;DHT22;17892;52.080;9.006;2023-02-28T08:18:53;8.00;99.90
31263;DHT22;17892;52.080;9.006;2023-02-28T08:21:20;8.10;99.90
31263;DHT22;17892;52.080;9.006;2023-02-28T08:23:47;8.10;99.90
31263;DHT22;17892;52.080;9.006;2023-02-28T08:26:14;8.40;99.90
31263;DHT22;17892;52.080;9.006;2023-02-28T08:28:41;8.50;99.90
31263;DHT22;17892;52.080;9.006;2023-02-28T08:31:08;8.50;99.90
31263;DHT22;17892;52.080;9.006;2023-02-28T08:33:35;8.50;99.90
31263;DHT22;17892;52.080;9.006;2023-02-28T08:36:02;8.50;99.90
31263;DHT22;17892;52.080;9.006;2023-02-28T08:38:28;8.50;99.90
31263;DHT22;17892;52.080;9.006;2023-02-28T08:40:58;8.60;99.90
31263;DHT22;17892;52.080;9.006;2023-02-28T08:43:25;8.80;99.90
31263;DHT22;17892;52.080;9.006;2023-02-28T08:45:52;8.90;97.80
31263;DHT22;17892;52.080;9.006;2023-02-28T08:48:18;8.90;98.90
31263;DHT22;17892;52.080;9.006;2023-02-28T08:50:44;8.80;99.20
31263;DHT22;17892;52.080;9.006;2023-02-28T08:53:09;8.50;99.90
31263;DHT22;17892;52.080;9.006;2023-02-28T08:55:35;8.20;99.50
31263;DHT22;17892;52.080;9.006;2023-02-28T08:58:01;7.90;97.80
31263;DHT22;17892;52.080;9.006;2023-02-28T09:00:27;7.60;98.50
31263;DHT22;17892;52.080;9.006;2023-02-28T09:02:53;7.20;98.50
31263;DHT22;17892;52.080;9.006;2023-02-28T09:05:19;6.90;99.90
31263;DHT22;17892;52.080;9.006;2023-02-28T09:07:45;6.60;99.90
31263;DHT22;17892;52.080;9.006;2023-02-28T09:10:11;6.60;99.90
31263;DHT22;17892;52.080;9.006;2023-02-28T09:12:36;6.80;99.90
31263;DHT22;17892;52.080;9.006;2023-02-28T09:15:03;7.30;99.90
31263;DHT22;17892;52.080;9.006;2023-02-28T09:17:29;7.80;99.90
31263;DHT22;17892;52.080;9.006;2023-02-28T09:19:54;8.40;99.90
31263;DHT22;17892;52.080;9.006;2023-02-28T09:22:20;9.00;99.90
31263;DHT22;17892;52.080;9.006;2023-02-28T09:24:46;9.50;99.90
31263;DHT22;17892;52.080;9.006;2023-02-28T09:27:12;10.00;99.90
31263;DHT22;17892;52.080;9.006;2023-02-28T09:29:37;10.50;99.90
31263;DHT22;17892;52.080;9.006;2023-02-28T09:32:04;10.80;99.90
31263;DHT22;17892;52.080;9.006;2023-02-28T09:34:31;11.10;99.90
31263;DHT22;17892;52.080;9.006;2023-02-28T09:36:57;11.40;99.90
31263;DHT22;17892;52.080;9.006;2023-02-28T09:39:23;11.70;99.90
31263;DHT22;17892;52.080;9.006;2023-02-28T09:41:51;11.90;99.90
31263;DHT22;17892;52.080;9.006;2023-02-28T09:47:18;12.20;99.70
31263;DHT22;17892;52.080;9.006;2023-02-28T09:50:03;12.40;95.80
31263;DHT22;17892;52.080;9.006;2023-02-28T09:52:37;12.50;99.90
31263;DHT22;17892;52.080;9.006;2023-02-28T09:55:28;12.40;99.90
31263;DHT22;17892;52.080;9.006;2023-02-28T09:57:57;12.20;93.70
31263;DHT22;17892;52.080;9.006;2023-02-28T10:00:32;12.20;99.90
31263;DHT22;17892;52.080;9.006;2023-02-28T10:03:32;12.20;95.60
31263;DHT22;17892;52.080;9.006;2023-02-28T10:06:19;11.90;73.40
31263;DHT22;17892;52.080;9.006;2023-02-28T10:09:08;11.80;96.60
31263;DHT22;17892;52.080;9.006;2023-02-28T10:11:40;11.60;87.00
31263;DHT22;17892;52.080;9.006;2023-02-28T10:14:14;11.50;99.20
31263;DHT22;17892;52.080;9.006;2023-02-28T10:16:49;11.60;96.80
31263;DHT22;17892;52.080;9.006;2023-02-28T10:22:29;11.60;99.70
31263;DHT22;17892;52.080;9.006;2023-02-28T10:25:21;11.60;97.50
31263;DHT22;17892;52.080;9.006;2023-02-28T10:27:51;11.60;92.60
31263;DHT22;17892;52.080;9.006;2023-02-28T10:30:19;11.40;88.60
31263;DHT22;17892;52.080;9.006;2023-02-28T10:32:50;11.20;98.40
31263;DHT22;17892;52.080;9.006;2023-02-28T10:35:21;11.10;89.60
31263;DHT22;17892;52.080;9.006;2023-02-28T10:37:51;10.90;95.70
31263;DHT22;17892;52.080;9.006;2023-02-28T10:43:07;10.20;79.40
31263;DHT22;17892;52.080;9.006;2023-02-28T10:46:01;9.90;85.80
31263;DHT22;17892;52.080;9.006;2023-02-28T10:49:05;9.60;90.50
31263;DHT22;17892;52.080;9.006;2023-02-28T10:51:39;9.50;77.50
31263;DHT22;17892;52.080;9.006;2023-02-28T10:54:31;9.30;82.80
31263;DHT22;17892;52.080;9.006;2023-02-28T10:57:26;9.30;84.30
31263;DHT22;17892;52.080;9.006;2023-02-28T11:02:47;9.20;86.50
31263;DHT22;17892;52.080;9.006;2023-02-28T11:05:32;9.20;92.70
31263;DHT22;17892;52.080;9.006;2023-02-28T11:08:12;9.30;79.00
31263;DHT22;17892;52.080;9.006;2023-02-28T11:10:48;9.10;85.20
31263;DHT22;17892;52.080;9.006;2023-02-28T11:13:27;8.80;91.30
31263;DHT22;17892;52.080;9.006;2023-02-28T11:15:58;8.70;94.20
31263;DHT22;17892;52.080;9.006;2023-02-28T11:18:36;8.50;94.00
31263;DHT22;17892;52.080;9.006;2023-02-28T11:21:15;8.30;89.20
31263;DHT22;17892;52.080;9.006;2023-02-28T11:23:43;8.30;96.10
31263;DHT22;17892;52.080;9.006;2023-02-28T11:26:09;8.40;99.90
31263;DHT22;17892;52.080;9.006;2023-02-28T11:28:39;8.70;99.90
31263;DHT22;17892;52.080;9.006;2023-02-28T11:31:16;9.10;99.90
31263;DHT22;17892;52.080;9.006;2023-02-28T11:33:45;9.60;99.90
31263;DHT22;17892;52.080;9.006;2023-02-28T11:36:22;10.00;99.90
31263;DHT22;17892;52.080;9.006;2023-02-28T11:38:55;10.20;99.90
31263;DHT22;17892;52.080;9.006;2023-02-28T11:42:04;10.40;99.90
31263;DHT22;17892;52.080;9.006;2023-02-28T11:45:16;10.70;90.80
31263;DHT22;17892;52.080;9.006;2023-02-28T11:48:17;10.70;82.80
31263;DHT22;17892;52.080;9.006;2023-02-28T11:51:10;10.50;80.30
31263;DHT22;17892;52.080;9.006;2023-02-28T11:54:03;10.20;83.00
31263;DHT22;17892;52.080;9.006;2023-02-28T11:56:54;9.80;90.20
31263;DHT22;17892;52.080;9.006;2023-02-28T12:02:47;9.00;91.60
31263;DHT22;17892;52.080;9.006;2023-02-28T12:05:34;8.60;86.40
31263;DHT22;17892;52.080;9.006;2023-02-28T12:13:50;8.00;85.40
31263;DHT22;17892;52.080;9.006;2023-02-28T12:19:48;8.00;79.90
31263;DHT22;17892;52.080;9.006;2023-02-28T12:22:37;8.00;82.60
31263;DHT22;17892;52.080;9.006;2023-02-28T12:28:01;8.00;95.30
31263;DHT22;17892;52.080;9.006;2023-02-28T12:30:35;8.10;70.80
31263;DHT22;17892;52.080;9.006;2023-02-28T12:33:08;8.40;96.60
31263;DHT22;17892;52.080;9.006;2023-02-28T12:35:39;8.60;91.90
31263;DHT22;17892;52.080;9.006;2023-02-28T12:38:19;8.70;82.60
31263;DHT22;17892;52.080;9.006;2023-02-28T12:40:52;8.70;78.50
31263;DHT22;17892;52.080;9.006;2023-02-28T12:43:22;8.90;94.80
31263;DHT22;17892;52.080;9.006;2023-02-28T12:46:09;9.10;95.10
31263;DHT22;17892;52.080;9.006;2023-02-28T12:48:42;9.50;99.90
31263;DHT22;17892;52.080;9.006;2023-02-28T12:51:12;9.60;90.90
31263;DHT22;17892;52.080;9.006;2023-02-28T12:54:00;9.70;91.90
31263;DHT22;17892;52.080;9.006;2023-02-28T12:57:02;9.90;80.40
31263;DHT22;17892;52.080;9.006;2023-02-28T12:59:54;10.00;75.80
31263;DHT22;17892;52.080;9.006;2023-02-28T13:02:33;10.20;92.40
31263;DHT22;17892;52.080;9.006;2023-02-28T13:11:24;10.40;83.90
31263;DHT22;17892;52.080;9.006;2023-02-28T13:13:58;10.50;93.70
31263;DHT22;17892;52.080;9.006;2023-02-28T13:16:25;10.50;90.20
31263;DHT22;17892;52.080;9.006;2023-02-28T13:18:51;10.70;97.60
31263;DHT22;17892;52.080;9.006;2023-02-28T13:21:27;10.70;68.70
31263;DHT22;17892;52.080;9.006;2023-02-28T13:32:19;10.50;92.80
31263;DHT22;17892;52.080;9.006;2023-02-28T13:39:52;10.40;79.50
31263;DHT22;17892;52.080;9.006;2023-02-28T13:42:35;10.40;87.50
31263;DHT22;17892;52.080;9.006;2023-02-28T13:48:00;10.40;96.20
31263;DHT22;17892;52.080;9.006;2023-02-28T13:50:33;10.50;77.60
31263;DHT22;17892;52.080;9.006;2023-02-28T13:55:48;10.10;81.40
31263;DHT22;17892;52.080;9.006;2023-02-28T13:58:25;9.90;85.50
31263;DHT22;17892;52.080;9.006;2023-02-28T14:07:04;9.00;77.40
31263;DHT22;17892;52.080;9.006;2023-02-28T14:09:37;8.60;82.90
31263;DHT22;17892;52.080;9.006;2023-02-28T14:15:39;8.10;85.20
31263;DHT22;17892;52.080;9.006;2023-02-28T14:18:37;7.80;86.00
31263;DHT22;17892;52.080;9.006;2023-02-28T14:21:23;7.60;83.60
31263;DHT22;17892;52.080;9.006;2023-02-28T14:27:05;7.20;91.80
31263;DHT22;17892;52.080;9.006;2023-02-28T14:37:52;6.90;94.40
31263;DHT22;17892;52.080;9.006;2023-02-28T14:40:31;6.90;91.70
31263;DHT22;17892;52.080;9.006;2023-02-28T14:43:03;6.80;94.00
31263;DHT22;17892;52.080;9.006;2023-02-28T14:45:32;6.80;99.00
31263;DHT22;17892;52.080;9.006;2023-02-28T14:48:01;6.80;99.60
31263;DHT22;17892;52.080;9.006;2023-02-28T14:50:34;6.80;99.90
31263;DHT22;17892;52.080;9.006;2023-02-28T14:53:02;7.00;99.90
31263;DHT22;17892;52.080;9.006;2023-02-28T14:55:30;7.10;98.10
31263;DHT22;17892;52.080;9.006;2023-02-28T14:58:00;7.20;88.20
31263;DHT22;17892;52.080;9.006;2023-02-28T15:00:31;7.20;92.80
31263;DHT22;17892;52.080;9.006;2023-02-28T15:03:00;7.10;96.80
31263;DHT22;17892;52.080;9.006;2023-02-28T15:05:36;7.00;96.00
31263;DHT22;17892;52.080;9.006;2023-02-28T15:10:40;6.90;93.90
31263;DHT22;17892;52.080;9.006;2023-02-28T15:13:14;6.80;91.90
31263;DHT22;17892;52.080;9.006;2023-02-28T15:15:59;6.80;93.40
31263;DHT22;17892;52.080;9.006;2023-02-28T15:21:43;7.10;93.50
31263;DHT22;17892;52.080;9.006;2023-02-28T15:26:56;7.60;98.30
31263;DHT22;17892;52.080;9.006;2023-02-28T15:29:25;8.00;99.90
31263;DHT22;17892;52.080;9.006;2023-02-28T15:32:04;8.30;99.90
31263;DHT22;17892;52.080;9.006;2023-02-28T15:34:35;8.60;99.90
31263;DHT22;17892;52.080;9.006;2023-02-28T15:37:24;8.90;99.90
31263;DHT22;17892;52.080;9.006;2023-02-28T15:39:50;9.00;99.90
31263;DHT22;17892;52.080;9.006;2023-02-28T15:42:23;9.00;98.00
31263;DHT22;17892;52.080;9.006;2023-02-28T15:44:53;9.10;95.50
31263;DHT22;17892;52.080;9.006;2023-02-28T15:47:26;9.10;99.90
31263;DHT22;17892;52.080;9.006;2023-02-28T15:49:59;9.10;98.90
31263;DHT22;17892;52.080;9.006;2023-02-28T15:52:33;9.10;99.90
31263;DHT22;17892;52.080;9.006;2023-02-28T15:55:21;9.20;99.90
31263;DHT22;17892;52.080;9.006;2023-02-28T15:57:51;9.10;99.70
31263;DHT22;17892;52.080;9.006;2023-02-28T16:00:21;9.30;99.90
31263;DHT22;17892;52.080;9.006;2023-02-28T16:02:48;9.30;99.90
31263;DHT22;17892;52.080;9.006;2023-02-28T16:05:41;9.30;99.90
31263;DHT22;17892;52.080;9.006;2023-02-28T16:08:14;9.30;90.80
31263;DHT22;17892;52.080;9.006;2023-02-28T16:10:40;9.20;98.20
31263;DHT22;17892;52.080;9.006;2023-02-28T16:13:08;9.10;99.90
31263;DHT22;17892;52.080;9.006;2023-02-28T16:15:38;9.00;99.90
31263;DHT22;17892;52.080;9.006;2023-02-28T16:18:09;9.00;99.90
31263;DHT22;17892;52.080;9.006;2023-02-28T16:20:36;8.90;99.90
31263;DHT22;17892;52.080;9.006;2023-02-28T16:23:02;8.80;99.90
31263;DHT22;17892;52.080;9.006;2023-02-28T16:25:42;8.60;99.90
31263;DHT22;17892;52.080;9.006;2023-02-28T16:28:25;8.40;90.70
31263;DHT22;17892;52.080;9.006;2023-02-28T16:31:00;8.20;95.80
31263;DHT22;17892;52.080;9.006;2023-02-28T16:33:31;8.00;98.30
31263;DHT22;17892;52.080;9.006;2023-02-28T16:35:58;7.80;97.80
31263;DHT22;17892;52.080;9.006;2023-02-28T16:38:24;7.50;97.90
31263;DHT22;17892;52.080;9.006;2023-02-28T16:40:51;7.20;99.20
31263;DHT22;17892;52.080;9.006;2023-02-28T16:43:22;7.00;98.30
31263;DHT22;17892;52.080;9.006;2023-02-28T16:45:54;6.70;99.10
31263;DHT22;17892;52.080;9.006;2023-02-28T16:48:22;6.50;97.60
31263;DHT22;17892;52.080;9.006;2023-02-28T16:50:48;6.30;99.50
31263;DHT22;17892;52.080;9.006;2023-02-28T16:53:14;6.10;99.90
31263;DHT22;17892;52.080;9.006;2023-02-28T16:55:40;5.90;99.40
31263;DHT22;17892;52.080;9.006;2023-02-28T16:58:06;5.70;99.40
31263;DHT22;17892;52.080;9.006;2023-02-28T17:00:32;5.50;99.90
31263;DHT22;17892;52.080;9.006;2023-02-28T17:02:58;5.40;99.70
31263;DHT22;17892;52.080;9.006;2023-02-28T17:05:32;5.20;99.90
31263;DHT22;17892;52.080;9.006;2023-02-28T17:08:00;5.10;99.90
31263;DHT22;17892;52.080;9.006;2023-02-28T17:10:26;5.00;99.90
31263;DHT22;17892;52.080;9.006;2023-02-28T17:12:52;4.80;99.90
31263;DHT22;17892;52.080;9.006;2023-02-28T17:15:19;4.70;99.90
31263;DHT22;17892;52.080;9.006;2023-02-28T17:17:47;4.60;99.90
31263;DHT22;17892;52.080;9.006;2023-02-28T17:20:22;4.40;99.90
31263;DHT22;17892;52.080;9.006;2023-02-28T17:22:48;4.30;99.90
31263;DHT22;17892;52.080;9.006;2023-02-28T17:25:15;4.20;99.90
31263;DHT22;17892;52.080;9.006;2023-02-28T17:27:40;4.10;99.90
31263;DHT22;17892;52.080;9.006;2023-02-28T17:30:26;4.00;99.90
31263;DHT22;17892;52.080;9.006;2023-02-28T17:32:56;3.80;99.90
31263;DHT22;17892;52.080;9.006;2023-02-28T17:35:23;3.70;99.90
31263;DHT22;17892;52.080;9.006;2023-02-28T17:37:49;3.60;99.90
31263;DHT22;17892;52.080;9.006;2023-02-28T17:40:20;3.50;99.90
31263;DHT22;17892;52.080;9.006;2023-02-28T17:42:47;3.40;99.90
31263;DHT22;17892;52.080;9.006;2023-02-28T17:45:14;3.30;99.90
31263;DHT22;17892;52.080;9.006;2023-02-28T17:47:41;3.10;99.90
31263;DHT22;17892;52.080;9.006;2023-02-28T17:50:20;3.00;99.90
31263;DHT22;17892;52.080;9.006;2023-02-28T17:52:46;2.90;99.90
31263;DHT22;17892;52.080;9.006;2023-02-28T17:55:13;2.70;99.90
31263;DHT22;17892;52.080;9.006;2023-02-28T17:57:39;2.60;99.90
31263;DHT22;17892;52.080;9.006;2023-02-28T18:00:07;2.50;99.90
31263;DHT22;17892;52.080;9.006;2023-02-28T18:02:34;2.40;99.90
31263;DHT22;17892;52.080;9.006;2023-02-28T18:05:00;2.20;99.90